Time;durP1;ratioP1;P1;durP2;ratioP2;P2;SDS_P1;SDS_P2;PMS_P1;PMS_P2;Temp;Humidity;BMP_temperature;BMP_pressure;BME280_temperature;BME280_humidity;BME280_pressure;Samples;Min_cycle;Max_cycle;Signal;HPM_P1;HPM_P2
2022/08/09 00:01:01;;;;;;;10.50;5.00;;;;;;;;;;771248;183;617431;-55
2022/08/09 00:03:27;;;;;;;7.67;5.20;;;;;;;;;;756037;184;620003;-55
2022/08/09 00:05:53;;;;;;;6.63;4.23;;;;;;;;;;761691;183;625420;-57
2022/08/09 00:08:18;;;;;;;5.93;4.97;;;;;;;;;;764973;184;624734;-55
2022/08/09 00:10:44;;;;;;;5.73;4.80;;;;;;;;;;761131;184;623868;-56
2022/08/09 00:13:10;;;;;;;11.60;5.43;;;;;;;;;;759507;185;628046;-56
2022/08/09 00:15:36;;;;;;;7.67;5.43;;;;;;;;;;761578;184;631532;-55
2022/08/09 00:18:02;;;;;;;7.10;5.53;;;;;;;;;;771421;184;614458;-56
2022/08/09 00:20:28;;;;;;;7.83;5.17;;;;;;;;;;762086;184;634095;-55
2022/08/09 00:22:53;;;;;;;5.83;3.97;;;;;;;;;;761473;184;618284;-55
2022/08/09 00:25:19;;;;;;;6.70;4.60;;;;;;;;;;764283;184;629484;-55
2022/08/09 00:27:45;;;;;;;12.23;4.37;;;;;;;;;;751354;184;627852;-56
2022/08/09 00:30:12;;;;;;;7.13;4.90;;;;;;;;;;761853;184;624657;-55
2022/08/09 00:32:37;;;;;;;8.13;4.90;;;;;;;;;;763468;185;624686;-54
2022/08/09 00:35:03;;;;;;;8.40;5.83;;;;;;;;;;762442;184;632992;-55
2022/08/09 00:37:29;;;;;;;6.17;5.53;;;;;;;;;;761275;184;632911;-55
2022/08/09 00:39:55;;;;;;;6.77;5.40;;;;;;;;;;761699;185;629375;-57
2022/08/09 00:42:21;;;;;;;7.40;5.50;;;;;;;;;;758793;184;617268;-55
2022/08/09 00:44:47;;;;;;;8.73;6.17;;;;;;;;;;759119;184;636104;-57
2022/08/09 00:47:12;;;;;;;6.53;5.33;;;;;;;;;;754263;184;630923;-55
2022/08/09 00:49:38;;;;;;;7.80;5.27;;;;;;;;;;763692;184;625489;-56
2022/08/09 00:52:04;;;;;;;12.60;4.67;;;;;;;;;;761960;184;634542;-56
2022/08/09 00:54:30;;;;;;;7.90;4.67;;;;;;;;;;755366;186;622590;-56
2022/08/09 00:56:56;;;;;;;6.80;4.87;;;;;;;;;;764917;183;631066;-55
2022/08/09 00:59:22;;;;;;;13.33;5.90;;;;;;;;;;764721;184;623855;-56
2022/08/09 01:01:47;;;;;;;11.10;4.67;;;;;;;;;;761191;184;632614;-55
2022/08/09 01:04:16;;;;;;;9.70;6.13;;;;;;;;;;762676;184;620338;-57
2022/08/09 01:06:42;;;;;;;9.60;5.30;;;;;;;;;;766258;184;644806;-56
2022/08/09 01:09:13;;;;;;;8.90;5.43;;;;;;;;;;763030;184;623199;-55
2022/08/09 01:11:38;;;;;;;8.13;6.00;;;;;;;;;;762606;183;626214;-55
2022/08/09 01:14:06;;;;;;;7.77;5.20;;;;;;;;;;767606;183;628941;-57
2022/08/09 01:16:32;;;;;;;7.10;5.30;;;;;;;;;;757211;185;620884;-55
2022/08/09 01:18:58;;;;;;;6.00;4.97;;;;;;;;;;761790;184;629661;-55
2022/08/09 01:21:29;;;;;;;11.53;7.90;;;;;;;;;;761191;184;635701;-57
2022/08/09 01:23:57;;;;;;;10.63;5.47;;;;;;;;;;769451;184;642873;-55
2022/08/09 01:26:29;;;;;;;7.03;4.97;;;;;;;;;;757910;184;627225;-57
2022/08/09 01:28:55;;;;;;;7.33;4.87;;;;;;;;;;762369;184;626929;-57
2022/08/09 01:31:20;;;;;;;10.40;6.10;;;;;;;;;;768629;183;629674;-57
2022/08/09 01:33:46;;;;;;;16.33;6.00;;;;;;;;;;761966;184;629091;-55
2022/08/09 01:36:12;;;;;;;5.70;5.00;;;;;;;;;;750912;186;625673;-55
2022/08/09 01:38:38;;;;;;;7.07;5.03;;;;;;;;;;760717;184;630937;-56
2022/08/09 01:41:04;;;;;;;8.87;6.30;;;;;;;;;;756157;186;615333;-56
2022/08/09 01:43:30;;;;;;;6.13;5.47;;;;;;;;;;760580;184;628250;-56
2022/08/09 01:45:55;;;;;;;7.50;5.83;;;;;;;;;;762798;185;634129;-55
2022/08/09 01:48:21;;;;;;;9.73;6.47;;;;;;;;;;766349;184;619284;-55
2022/08/09 01:50:47;;;;;;;6.20;5.30;;;;;;;;;;764168;184;625138;-57
2022/08/09 01:53:13;;;;;;;6.97;6.27;;;;;;;;;;760834;184;627139;-57
2022/08/09 01:55:39;;;;;;;8.93;6.00;;;;;;;;;;759254;184;633742;-55
2022/08/09 01:58:05;;;;;;;8.37;5.57;;;;;;;;;;760937;184;627621;-55
2022/08/09 02:00:32;;;;;;;7.50;5.10;;;;;;;;;;758312;184;627395;-55
2022/08/09 02:02:56;;;;;;;8.30;5.20;;;;;;;;;;764926;184;620900;-56
2022/08/09 02:05:22;;;;;;;9.20;6.20;;;;;;;;;;764197;184;620376;-56
2022/08/09 02:07:49;;;;;;;6.80;5.80;;;;;;;;;;761745;184;617961;-57
2022/08/09 02:10:16;;;;;;;6.03;5.43;;;;;;;;;;763536;184;622871;-57
2022/08/09 02:12:41;;;;;;;7.73;6.43;;;;;;;;;;764841;184;618756;-57
2022/08/09 02:15:08;;;;;;;11.10;6.40;;;;;;;;;;760494;184;629583;-55
2022/08/09 02:17:34;;;;;;;10.33;5.57;;;;;;;;;;761546;184;629674;-55
2022/08/09 02:20:00;;;;;;;7.77;6.07;;;;;;;;;;761466;184;629075;-56
2022/08/09 02:22:25;;;;;;;6.90;6.20;;;;;;;;;;764025;183;610087;-55
2022/08/09 02:24:51;;;;;;;6.57;5.87;;;;;;;;;;763856;184;622111;-55
2022/08/09 02:27:18;;;;;;;7.00;6.30;;;;;;;;;;760682;184;623108;-55
2022/08/09 02:29:43;;;;;;;6.47;5.73;;;;;;;;;;765095;184;618087;-55
2022/08/09 02:32:09;;;;;;;11.73;7.10;;;;;;;;;;763836;184;627291;-55
2022/08/09 02:34:35;;;;;;;7.63;6.27;;;;;;;;;;760202;184;621231;-56
2022/08/09 02:37:00;;;;;;;7.70;5.17;;;;;;;;;;765957;184;616821;-56
2022/08/09 02:39:29;;;;;;;9.63;6.50;;;;;;;;;;761466;184;614534;-55
2022/08/09 02:41:55;;;;;;;6.50;5.87;;;;;;;;;;760040;184;639938;-56
2022/08/09 02:44:22;;;;;;;12.33;6.90;;;;;;;;;;757986;184;624222;-56
2022/08/09 02:46:48;;;;;;;7.70;6.00;;;;;;;;;;761816;184;616122;-58
2022/08/09 02:49:13;;;;;;;7.70;6.90;;;;;;;;;;759638;184;628113;-55
2022/08/09 02:51:39;;;;;;;6.80;6.17;;;;;;;;;;760754;184;623215;-55
2022/08/09 02:54:05;;;;;;;9.97;6.27;;;;;;;;;;765807;184;614507;-56
2022/08/09 02:56:31;;;;;;;12.40;8.97;;;;;;;;;;760874;184;633034;-54
2022/08/09 02:58:57;;;;;;;14.13;9.93;;;;;;;;;;758555;184;629786;-56
2022/08/09 03:01:23;;;;;;;11.60;7.97;;;;;;;;;;759172;184;621842;-57
2022/08/09 03:03:48;;;;;;;9.97;8.37;;;;;;;;;;758935;184;630766;-55
2022/08/09 03:06:14;;;;;;;10.30;7.80;;;;;;;;;;759871;184;633616;-55
2022/08/09 03:08:44;;;;;;;14.10;8.60;;;;;;;;;;758894;184;628763;-55
2022/08/09 03:11:10;;;;;;;9.93;7.90;;;;;;;;;;761738;184;630501;-57
2022/08/09 03:13:36;;;;;;;14.63;12.43;;;;;;;;;;759186;184;624785;-57
2022/08/09 03:16:01;;;;;;;14.23;12.37;;;;;;;;;;757676;184;619336;-55
2022/08/09 03:18:27;;;;;;;19.30;13.60;;;;;;;;;;762891;184;610554;-54
2022/08/09 03:20:53;;;;;;;13.23;9.93;;;;;;;;;;755111;184;613173;-55
2022/08/09 03:23:19;;;;;;;14.33;11.27;;;;;;;;;;765802;184;630295;-55
2022/08/09 03:25:45;;;;;;;14.80;11.47;;;;;;;;;;755454;184;620452;-56
2022/08/09 03:28:11;;;;;;;18.80;13.13;;;;;;;;;;762776;184;618550;-55
2022/08/09 03:30:37;;;;;;;20.43;13.47;;;;;;;;;;761385;183;625412;-55
2022/08/09 03:33:05;;;;;;;22.13;15.20;;;;;;;;;;756074;185;624245;-56
2022/08/09 03:35:31;;;;;;;17.80;14.80;;;;;;;;;;770089;182;622970;-55
2022/08/09 03:37:57;;;;;;;21.27;15.67;;;;;;;;;;761466;183;642176;-55
2022/08/09 03:40:23;;;;;;;27.13;17.73;;;;;;;;;;759317;184;634623;-56
2022/08/09 03:42:49;;;;;;;23.30;16.87;;;;;;;;;;763697;184;609932;-55
2022/08/09 03:45:14;;;;;;;28.30;15.80;;;;;;;;;;761109;184;627113;-55
2022/08/09 03:47:40;;;;;;;30.77;17.93;;;;;;;;;;764824;184;635359;-55
2022/08/09 03:50:08;;;;;;;24.27;16.43;;;;;;;;;;761706;183;621881;-55
2022/08/09 03:52:32;;;;;;;23.10;16.90;;;;;;;;;;767170;184;615303;-56
2022/08/09 03:54:58;;;;;;;24.57;17.53;;;;;;;;;;762377;184;619750;-55
2022/08/09 03:57:24;;;;;;;31.13;17.87;;;;;;;;;;759619;184;635807;-55
2022/08/09 03:59:50;;;;;;;31.90;18.70;;;;;;;;;;762006;184;616403;-55
2022/08/09 04:02:16;;;;;;;26.47;16.83;;;;;;;;;;761159;184;623597;-55
2022/08/09 04:04:41;;;;;;;25.33;15.83;;;;;;;;;;761510;184;617199;-56
2022/08/09 04:07:07;;;;;;;23.17;15.83;;;;;;;;;;767784;184;614124;-56
2022/08/09 04:09:33;;;;;;;33.43;16.63;;;;;;;;;;759335;184;619117;-55
2022/08/09 04:12:02;;;;;;;29.40;16.57;;;;;;;;;;757068;184;630997;-55
2022/08/09 04:14:28;;;;;;;25.00;15.47;;;;;;;;;;765266;175;620090;-80
2022/08/09 04:16:53;;;;;;;22.93;17.30;;;;;;;;;;772687;182;636416;-80
2022/08/09 04:19:19;;;;;;;23.60;15.13;;;;;;;;;;769280;182;618162;-80
2022/08/09 04:21:45;;;;;;;22.40;15.63;;;;;;;;;;762336;182;630522;-79
2022/08/09 04:24:11;;;;;;;24.20;14.87;;;;;;;;;;768359;182;644280;-80
2022/08/09 04:26:37;;;;;;;21.90;14.15;;;;;;;;;;767428;182;634864;-80
2022/08/09 04:29:03;;;;;;;21.50;12.77;;;;;;;;;;765123;182;643451;-80
2022/08/09 04:31:29;;;;;;;17.53;12.83;;;;;;;;;;772748;182;644829;-79
2022/08/09 04:33:54;;;;;;;21.20;13.20;;;;;;;;;;766819;182;668080;-79
2022/08/09 04:36:21;;;;;;;20.10;12.90;;;;;;;;;;766219;182;644188;-80
2022/08/09 04:38:47;;;;;;;19.87;13.17;;;;;;;;;;765637;182;634597;-80
2022/08/09 04:41:13;;;;;;;15.17;11.70;;;;;;;;;;770229;182;628487;-80
2022/08/09 04:43:39;;;;;;;16.07;11.60;;;;;;;;;;767844;182;615778;-80
2022/08/09 04:46:06;;;;;;;18.30;10.60;;;;;;;;;;764921;181;630264;-80
2022/08/09 04:48:30;;;;;;;26.00;13.50;;;;;;;;;;768574;182;756105;-80
2022/08/09 04:50:56;;;;;;;23.07;11.90;;;;;;;;;;763960;182;654863;-80
2022/08/09 04:53:22;;;;;;;17.23;10.80;;;;;;;;;;763936;182;627053;-80
2022/08/09 04:55:49;;;;;;;14.50;11.10;;;;;;;;;;771835;182;635941;-80
2022/08/09 04:58:14;;;;;;;18.20;12.13;;;;;;;;;;765732;182;618498;-80
2022/08/09 05:00:40;;;;;;;16.33;12.20;;;;;;;;;;764907;182;643802;-79
2022/08/09 05:03:06;;;;;;;27.93;9.53;;;;;;;;;;764777;182;717060;-79
2022/08/09 05:05:32;;;;;;;19.50;11.10;;;;;;;;;;770806;182;653501;-79
2022/08/09 05:07:57;;;;;;;13.20;9.33;;;;;;;;;;763610;182;673674;-80
2022/08/09 05:10:23;;;;;;;14.00;9.40;;;;;;;;;;763235;182;666656;-80
2022/08/09 05:12:49;;;;;;;12.97;8.60;;;;;;;;;;772076;182;633158;-78
2022/08/09 05:15:15;;;;;;;20.40;8.87;;;;;;;;;;763069;182;665050;-79
2022/08/09 05:17:41;;;;;;;12.50;8.17;;;;;;;;;;760580;182;619209;-79
2022/08/09 05:20:08;;;;;;;10.67;8.87;;;;;;;;;;762656;182;622909;-79
2022/08/09 05:22:33;;;;;;;17.60;9.97;;;;;;;;;;763502;182;644471;-79
2022/08/09 05:24:59;;;;;;;9.77;7.40;;;;;;;;;;764727;182;652122;-79
2022/08/09 05:27:25;;;;;;;17.67;8.10;;;;;;;;;;762038;182;634248;-80
2022/08/09 05:29:51;;;;;;;10.37;7.30;;;;;;;;;;756890;185;614088;-78
2022/08/09 05:32:17;;;;;;;12.90;8.03;;;;;;;;;;769485;182;646865;-80
2022/08/09 05:34:42;;;;;;;22.87;11.53;;;;;;;;;;764085;182;657765;-79
2022/08/09 05:37:08;;;;;;;34.17;21.10;;;;;;;;;;765246;183;614624;-81
2022/08/09 05:39:34;;;;;;;9.10;7.60;;;;;;;;;;759942;182;717526;-79
2022/08/09 05:42:00;;;;;;;10.20;7.73;;;;;;;;;;762357;182;626771;-79
2022/08/09 05:44:26;;;;;;;29.00;26.70;;;;;;;;;;763088;182;648301;-80
2022/08/09 05:46:52;;;;;;;11.50;10.30;;;;;;;;;;765362;182;630236;-79
2022/08/09 05:49:18;;;;;;;9.80;7.07;;;;;;;;;;763056;182;652554;-80
2022/08/09 05:51:44;;;;;;;23.00;8.50;;;;;;;;;;764971;182;725033;-80
2022/08/09 05:54:10;;;;;;;11.90;6.67;;;;;;;;;;761203;182;636153;-79
2022/08/09 05:56:35;;;;;;;13.73;6.70;;;;;;;;;;760417;182;664881;-80
2022/08/09 05:59:01;;;;;;;15.60;6.67;;;;;;;;;;764827;180;666402;-79
2022/08/09 06:01:27;;;;;;;8.73;6.07;;;;;;;;;;769669;182;635102;-80
2022/08/09 06:03:53;;;;;;;9.13;6.43;;;;;;;;;;766701;182;635814;-80
2022/08/09 06:06:19;;;;;;;10.73;5.97;;;;;;;;;;764000;182;629080;-80
2022/08/09 06:08:45;;;;;;;10.07;6.20;;;;;;;;;;769342;182;636898;-79
2022/08/09 06:11:11;;;;;;;13.00;6.90;;;;;;;;;;767672;182;651946;-80
2022/08/09 06:13:37;;;;;;;10.50;5.43;;;;;;;;;;764665;182;688993;-80
2022/08/09 06:16:03;;;;;;;18.40;5.87;;;;;;;;;;771477;182;700241;-81
2022/08/09 06:18:28;;;;;;;10.67;6.33;;;;;;;;;;762146;182;640812;-79
2022/08/09 06:20:55;;;;;;;11.57;5.40;;;;;;;;;;766406;182;668630;-80
2022/08/09 06:23:20;;;;;;;8.43;5.60;;;;;;;;;;763589;182;638718;-79
2022/08/09 06:25:46;;;;;;;8.20;4.73;;;;;;;;;;767868;182;616766;-80
2022/08/09 06:28:12;;;;;;;13.07;6.73;;;;;;;;;;764261;182;663731;-80
2022/08/09 06:30:38;;;;;;;7.20;4.63;;;;;;;;;;766617;182;641197;-81
2022/08/09 06:33:04;;;;;;;9.97;5.00;;;;;;;;;;769669;182;673087;-80
2022/08/09 06:35:29;;;;;;;11.17;5.67;;;;;;;;;;766855;182;623899;-80
2022/08/09 06:37:55;;;;;;;15.40;5.63;;;;;;;;;;762214;182;691308;-80
2022/08/09 06:40:22;;;;;;;10.13;5.40;;;;;;;;;;765758;182;665209;-82
2022/08/09 06:42:47;;;;;;;10.90;5.43;;;;;;;;;;761745;182;673516;-83
2022/08/09 06:45:13;;;;;;;8.37;4.93;;;;;;;;;;757999;179;663792;-57
2022/08/09 06:47:39;;;;;;;10.87;5.33;;;;;;;;;;770993;182;641123;-58
2022/08/09 06:50:05;;;;;;;14.37;5.27;;;;;;;;;;756461;182;633458;-57
2022/08/09 06:52:31;;;;;;;17.90;4.70;;;;;;;;;;766515;182;633773;-56
2022/08/09 06:54:57;;;;;;;14.13;5.20;;;;;;;;;;766389;182;638271;-57
2022/08/09 06:57:23;;;;;;;8.43;4.93;;;;;;;;;;770353;181;617764;-57
2022/08/09 06:59:48;;;;;;;15.30;5.40;;;;;;;;;;765029;182;625507;-56
2022/08/09 07:02:14;;;;;;;8.17;4.83;;;;;;;;;;767715;182;616917;-57
2022/08/09 07:04:40;;;;;;;9.20;4.80;;;;;;;;;;770917;182;618282;-57
2022/08/09 07:07:06;;;;;;;9.43;5.40;;;;;;;;;;769393;182;619433;-56
2022/08/09 07:09:32;;;;;;;11.50;5.77;;;;;;;;;;770244;181;622928;-57
2022/08/09 07:11:58;;;;;;;9.17;5.67;;;;;;;;;;768952;181;624729;-57
2022/08/09 07:14:23;;;;;;;10.83;4.97;;;;;;;;;;765701;179;622266;-56
2022/08/09 07:16:49;;;;;;;6.17;3.70;;;;;;;;;;759309;182;629055;-56
2022/08/09 07:19:15;;;;;;;6.50;4.30;;;;;;;;;;768024;182;630902;-58
2022/08/09 07:21:42;;;;;;;7.87;3.93;;;;;;;;;;773359;182;617098;-57
2022/08/09 07:24:07;;;;;;;6.13;3.67;;;;;;;;;;769586;182;621415;-57
2022/08/09 07:26:33;;;;;;;9.47;4.20;;;;;;;;;;769037;182;618659;-57
2022/08/09 07:28:59;;;;;;;6.27;4.03;;;;;;;;;;772179;182;632724;-56
2022/08/09 07:31:24;;;;;;;8.63;4.10;;;;;;;;;;769644;182;631321;-57
2022/08/09 07:33:50;;;;;;;12.10;4.43;;;;;;;;;;768990;182;634052;-56
2022/08/09 07:36:16;;;;;;;9.20;5.10;;;;;;;;;;771455;182;628168;-55
2022/08/09 07:38:42;;;;;;;12.23;4.70;;;;;;;;;;768980;182;646655;-57
2022/08/09 07:41:08;;;;;;;12.07;4.20;;;;;;;;;;768224;182;633365;-58
2022/08/09 07:43:34;;;;;;;7.43;4.00;;;;;;;;;;768178;182;623304;-56
2022/08/09 07:46:00;;;;;;;5.20;4.17;;;;;;;;;;771260;182;674961;-56
2022/08/09 07:48:25;;;;;;;5.57;3.50;;;;;;;;;;766052;182;641692;-56
2022/08/09 07:50:51;;;;;;;6.87;3.83;;;;;;;;;;766824;182;645230;-56
2022/08/09 07:53:17;;;;;;;7.33;4.37;;;;;;;;;;770796;182;629280;-57
2022/08/09 07:55:43;;;;;;;6.00;3.90;;;;;;;;;;768305;182;637257;-57
2022/08/09 07:58:09;;;;;;;5.93;3.60;;;;;;;;;;767286;182;635098;-56
2022/08/09 08:00:35;;;;;;;6.50;4.50;;;;;;;;;;769894;182;634502;-55
2022/08/09 08:03:00;;;;;;;7.00;4.20;;;;;;;;;;765779;182;623746;-57
2022/08/09 08:05:26;;;;;;;6.60;4.00;;;;;;;;;;765206;182;633779;-59
2022/08/09 08:07:53;;;;;;;10.00;3.87;;;;;;;;;;767103;182;626489;-57
2022/08/09 08:10:18;;;;;;;7.83;3.20;;;;;;;;;;758086;183;626511;-57
2022/08/09 08:12:44;;;;;;;6.60;3.40;;;;;;;;;;767135;182;621398;-57
2022/08/09 08:15:10;;;;;;;11.00;3.60;;;;;;;;;;770453;182;623118;-58
2022/08/09 08:17:36;;;;;;;13.43;4.43;;;;;;;;;;769093;182;633872;-57
2022/08/09 08:20:01;;;;;;;5.93;2.90;;;;;;;;;;764996;183;625133;-58
2022/08/09 08:22:27;;;;;;;5.13;2.30;;;;;;;;;;762628;182;618942;-58
2022/08/09 08:24:55;;;;;;;6.70;3.00;;;;;;;;;;773028;182;627912;-57
2022/08/09 08:27:22;;;;;;;5.83;3.00;;;;;;;;;;767346;180;628722;-58
2022/08/09 08:29:47;;;;;;;10.50;2.93;;;;;;;;;;764227;181;634711;-58
2022/08/09 08:32:13;;;;;;;8.13;3.60;;;;;;;;;;766505;180;629829;-59
2022/08/09 08:34:39;;;;;;;8.63;2.77;;;;;;;;;;771929;181;649406;-57
2022/08/09 08:37:05;;;;;;;4.20;2.80;;;;;;;;;;763925;182;658833;-57
2022/08/09 08:39:31;;;;;;;5.67;3.03;;;;;;;;;;766932;181;631061;-61
2022/08/09 08:41:57;;;;;;;6.90;2.67;;;;;;;;;;767543;182;621310;-56
2022/08/09 08:44:22;;;;;;;9.60;4.47;;;;;;;;;;764977;181;640253;-57
2022/08/09 08:46:48;;;;;;;5.97;2.87;;;;;;;;;;767709;182;636892;-56
2022/08/09 08:49:14;;;;;;;6.20;2.50;;;;;;;;;;771888;182;627788;-57
2022/08/09 08:51:40;;;;;;;4.10;2.03;;;;;;;;;;768531;182;631474;-57
2022/08/09 08:54:06;;;;;;;5.67;2.60;;;;;;;;;;759423;182;633604;-58
2022/08/09 08:56:32;;;;;;;10.00;2.60;;;;;;;;;;769284;182;627609;-59
2022/08/09 08:58:58;;;;;;;5.63;2.40;;;;;;;;;;761583;182;613803;-58
2022/08/09 09:01:24;;;;;;;4.10;2.47;;;;;;;;;;767303;182;636130;-58
2022/08/09 09:03:50;;;;;;;6.30;3.00;;;;;;;;;;768314;182;634838;-58
2022/08/09 09:06:16;;;;;;;6.17;2.77;;;;;;;;;;771872;182;625043;-59
2022/08/09 09:08:42;;;;;;;4.73;2.27;;;;;;;;;;770071;182;626595;-57
2022/08/09 09:11:07;;;;;;;5.60;2.83;;;;;;;;;;769062;182;627331;-58
2022/08/09 09:13:34;;;;;;;6.13;2.63;;;;;;;;;;770959;182;623164;-59
2022/08/09 09:16:00;;;;;;;5.00;2.17;;;;;;;;;;768629;182;625462;-58
2022/08/09 09:18:26;;;;;;;11.10;2.37;;;;;;;;;;768662;182;631926;-56
2022/08/09 09:20:52;;;;;;;5.93;2.90;;;;;;;;;;763139;182;630265;-57
2022/08/09 09:23:20;;;;;;;7.90;2.83;;;;;;;;;;754792;186;619029;-59
2022/08/09 09:25:43;;;;;;;8.60;2.73;;;;;;;;;;760864;181;622030;-59
2022/08/09 09:28:10;;;;;;;4.50;2.93;;;;;;;;;;766379;182;625555;-58
2022/08/09 09:30:35;;;;;;;3.40;2.10;;;;;;;;;;766936;182;624552;-57
2022/08/09 09:33:01;;;;;;;5.80;2.10;;;;;;;;;;766428;181;632228;-57
2022/08/09 09:35:27;;;;;;;4.70;2.30;;;;;;;;;;766814;181;627771;-59
2022/08/09 09:37:53;;;;;;;4.33;2.40;;;;;;;;;;772004;182;623913;-58
2022/08/09 09:40:18;;;;;;;3.60;2.27;;;;;;;;;;765951;182;633546;-58
2022/08/09 09:42:44;;;;;;;6.47;2.43;;;;;;;;;;765833;182;631838;-57
2022/08/09 09:45:10;;;;;;;6.73;2.57;;;;;;;;;;765119;182;616428;-56
2022/08/09 09:47:36;;;;;;;4.87;2.50;;;;;;;;;;770205;182;629942;-56
2022/08/09 09:50:02;;;;;;;3.60;2.13;;;;;;;;;;764923;182;630122;-59
2022/08/09 09:52:28;;;;;;;5.07;2.07;;;;;;;;;;761899;182;633632;-57
2022/08/09 09:54:59;;;;;;;4.20;2.00;;;;;;;;;;765675;182;628218;-56
2022/08/09 09:57:25;;;;;;;4.03;2.27;;;;;;;;;;764598;180;626274;-59
2022/08/09 09:59:51;;;;;;;3.73;1.90;;;;;;;;;;764125;182;635170;-56
2022/08/09 10:02:17;;;;;;;4.57;1.60;;;;;;;;;;770652;182;627692;-57
2022/08/09 10:04:42;;;;;;;4.50;2.63;;;;;;;;;;764912;182;626622;-58
2022/08/09 10:07:14;;;;;;;3.27;1.50;;;;;;;;;;767031;182;630117;-57
2022/08/09 10:09:47;;;;;;;3.67;2.00;;;;;;;;;;761405;182;625762;-58
2022/08/09 10:12:13;;;;;;;3.90;1.53;;;;;;;;;;770202;182;626259;-56
2022/08/09 10:14:38;;;;;;;5.03;1.80;;;;;;;;;;770692;182;618099;-59
2022/08/09 10:17:08;;;;;;;3.00;1.80;;;;;;;;;;764730;182;635131;-57
2022/08/09 10:19:34;;;;;;;5.10;2.17;;;;;;;;;;767123;182;642026;-57
2022/08/09 10:21:59;;;;;;;5.53;2.00;;;;;;;;;;768704;182;633548;-57
2022/08/09 10:24:25;;;;;;;4.10;2.10;;;;;;;;;;763497;182;631595;-58
2022/08/09 10:26:54;;;;;;;5.10;1.83;;;;;;;;;;763622;182;644921;-57
2022/08/09 10:29:17;;;;;;;2.80;1.80;;;;;;;;;;767008;181;617669;-58
2022/08/09 10:31:43;;;;;;;3.43;2.10;;;;;;;;;;766511;181;620271;-59
2022/08/09 10:34:11;;;;;;;4.03;2.30;;;;;;;;;;767353;182;715354;-57
2022/08/09 10:36:36;;;;;;;3.00;1.80;;;;;;;;;;762476;182;624277;-58
2022/08/09 10:39:02;;;;;;;5.33;1.70;;;;;;;;;;766220;182;626357;-57
2022/08/09 10:41:28;;;;;;;5.27;2.27;;;;;;;;;;763431;182;623210;-56
2022/08/09 10:43:54;;;;;;;7.53;2.73;;;;;;;;;;764425;181;619863;-58
2022/08/09 10:46:23;;;;;;;8.97;2.17;;;;;;;;;;769695;180;628364;-59
2022/08/09 10:48:52;;;;;;;3.40;1.93;;;;;;;;;;767620;182;680094;-58
2022/08/09 10:51:21;;;;;;;6.23;1.77;;;;;;;;;;763820;182;627217;-58
2022/08/09 10:53:48;;;;;;;2.70;1.70;;;;;;;;;;767313;182;629293;-59
2022/08/09 10:56:13;;;;;;;3.90;2.30;;;;;;;;;;771415;182;634965;-58
2022/08/09 10:58:39;;;;;;;7.27;2.10;;;;;;;;;;768319;183;625770;-56
2022/08/09 11:01:05;;;;;;;7.30;2.40;;;;;;;;;;764728;182;636528;-58
2022/08/09 11:03:32;;;;;;;9.87;1.80;;;;;;;;;;769574;182;624696;-58
2022/08/09 11:06:04;;;;;;;3.77;1.60;;;;;;;;;;768908;182;630018;-57
2022/08/09 11:08:36;;;;;;;4.10;1.90;;;;;;;;;;764835;182;632568;-58
2022/08/09 11:11:01;;;;;;;3.47;1.97;;;;;;;;;;765883;182;629128;-57
2022/08/09 11:13:27;;;;;;;6.20;1.70;;;;;;;;;;771701;182;620439;-58
2022/08/09 11:15:54;;;;;;;3.40;1.57;;;;;;;;;;768426;182;629758;-58
2022/08/09 11:18:26;;;;;;;3.50;1.70;;;;;;;;;;757910;182;620989;-57
2022/08/09 11:20:52;;;;;;;3.77;1.80;;;;;;;;;;767342;182;625584;-59
2022/08/09 11:23:18;;;;;;;3.10;1.63;;;;;;;;;;768472;182;630518;-56
2022/08/09 11:25:43;;;;;;;3.30;1.73;;;;;;;;;;761904;182;630689;-57
2022/08/09 11:28:27;;;;;;;3.13;1.70;;;;;;;;;;762185;182;635155;-58
2022/08/09 11:30:53;;;;;;;7.40;2.00;;;;;;;;;;764408;183;627077;-56
2022/08/09 11:33:34;;;;;;;3.87;2.10;;;;;;;;;;766416;182;627570;-56
2022/08/09 11:35:59;;;;;;;4.30;1.90;;;;;;;;;;760640;185;626967;-58
2022/08/09 11:38:27;;;;;;;4.20;1.70;;;;;;;;;;764324;182;634836;-59
2022/08/09 11:40:53;;;;;;;2.70;1.93;;;;;;;;;;765860;182;631494;-58
2022/08/09 11:43:39;;;;;;;4.47;1.67;;;;;;;;;;766134;182;631090;-57
2022/08/09 11:46:05;;;;;;;9.30;2.00;;;;;;;;;;765368;182;620089;-58
2022/08/09 11:48:31;;;;;;;3.07;1.43;;;;;;;;;;771141;182;616042;-58
2022/08/09 11:51:04;;;;;;;4.90;1.97;;;;;;;;;;766834;182;620054;-58
2022/08/09 11:53:29;;;;;;;5.33;2.43;;;;;;;;;;767343;182;624280;-56
2022/08/09 11:55:55;;;;;;;2.77;1.90;;;;;;;;;;766214;181;626779;-58
2022/08/09 11:58:36;;;;;;;3.43;1.60;;;;;;;;;;764539;181;631301;-57
2022/08/09 12:01:05;;;;;;;3.40;1.80;;;;;;;;;;764243;182;619045;-57
2022/08/09 12:03:28;;;;;;;7.13;1.87;;;;;;;;;;766539;182;613790;-57
2022/08/09 12:05:54;;;;;;;5.53;1.90;;;;;;;;;;768654;182;617162;-59
2022/08/09 12:08:20;;;;;;;4.53;2.07;;;;;;;;;;772007;182;616794;-57
2022/08/09 12:10:46;;;;;;;6.23;2.17;;;;;;;;;;769021;182;623154;-57
2022/08/09 12:13:12;;;;;;;4.70;2.13;;;;;;;;;;770075;182;629381;-56
2022/08/09 12:15:38;;;;;;;3.23;1.90;;;;;;;;;;772924;182;628878;-59
2022/08/09 12:18:04;;;;;;;3.53;1.87;;;;;;;;;;769326;182;629059;-57
2022/08/09 12:20:29;;;;;;;7.73;2.53;;;;;;;;;;768491;182;617658;-59
2022/08/09 12:22:56;;;;;;;8.57;2.30;;;;;;;;;;767648;182;628116;-58
2022/08/09 12:25:22;;;;;;;6.83;2.13;;;;;;;;;;768916;182;624331;-58
2022/08/09 12:27:48;;;;;;;4.37;2.00;;;;;;;;;;760282;182;658061;-57
2022/08/09 12:30:14;;;;;;;6.67;2.43;;;;;;;;;;772584;182;628180;-57
2022/08/09 12:32:39;;;;;;;8.93;2.20;;;;;;;;;;766178;182;617359;-57
2022/08/09 12:35:05;;;;;;;6.17;2.90;;;;;;;;;;762873;182;616360;-58
2022/08/09 12:37:32;;;;;;;8.53;2.70;;;;;;;;;;762705;181;619264;-56
2022/08/09 12:39:57;;;;;;;3.47;1.90;;;;;;;;;;765913;180;624206;-56
2022/08/09 12:42:23;;;;;;;5.70;2.10;;;;;;;;;;759273;183;624628;-57
2022/08/09 12:44:49;;;;;;;2.97;1.90;;;;;;;;;;761419;182;651024;-57
2022/08/09 12:47:15;;;;;;;5.00;3.13;;;;;;;;;;765817;182;633125;-57
2022/08/09 12:49:41;;;;;;;5.50;2.30;;;;;;;;;;766617;182;631730;-56
2022/08/09 12:52:09;;;;;;;6.07;2.30;;;;;;;;;;767569;182;631983;-58
2022/08/09 12:54:38;;;;;;;8.40;2.13;;;;;;;;;;764359;182;626456;-57
2022/08/09 12:57:04;;;;;;;3.60;2.00;;;;;;;;;;772289;182;625057;-57
2022/08/09 12:59:32;;;;;;;4.73;2.23;;;;;;;;;;765278;182;635089;-57
2022/08/09 13:02:00;;;;;;;6.10;2.03;;;;;;;;;;765551;182;630474;-57
2022/08/09 13:04:26;;;;;;;8.27;2.40;;;;;;;;;;767905;182;623231;-58
2022/08/09 13:06:52;;;;;;;5.00;2.43;;;;;;;;;;771655;180;635677;-57
2022/08/09 13:09:28;;;;;;;4.80;2.27;;;;;;;;;;770103;181;623769;-57
2022/08/09 13:11:52;;;;;;;3.60;1.83;;;;;;;;;;759825;181;619115;-57
2022/08/09 13:14:20;;;;;;;5.63;2.03;;;;;;;;;;769754;182;629867;-58
2022/08/09 13:16:45;;;;;;;7.00;2.70;;;;;;;;;;770194;179;616709;-57
2022/08/09 13:19:27;;;;;;;3.40;1.70;;;;;;;;;;768624;182;625558;-57
2022/08/09 13:21:59;;;;;;;4.67;1.83;;;;;;;;;;767245;182;633204;-57
2022/08/09 13:24:25;;;;;;;5.80;2.10;;;;;;;;;;767727;182;637261;-58
2022/08/09 13:26:52;;;;;;;7.30;2.50;;;;;;;;;;771314;182;617009;-58
2022/08/09 13:29:16;;;;;;;10.60;3.10;;;;;;;;;;763325;182;619072;-57
2022/08/09 13:31:48;;;;;;;7.13;2.57;;;;;;;;;;764841;182;623842;-58
2022/08/09 13:34:14;;;;;;;5.60;2.27;;;;;;;;;;767190;182;628735;-57
2022/08/09 13:36:39;;;;;;;4.83;2.53;;;;;;;;;;769427;182;634192;-57
2022/08/09 13:39:05;;;;;;;11.57;2.30;;;;;;;;;;765547;182;635903;-57
2022/08/09 13:41:31;;;;;;;5.43;2.17;;;;;;;;;;767274;182;627445;-57
2022/08/09 13:43:57;;;;;;;3.67;2.33;;;;;;;;;;769578;182;624299;-57
2022/08/09 13:46:23;;;;;;;5.53;2.67;;;;;;;;;;769103;182;622429;-57
2022/08/09 13:48:49;;;;;;;3.00;1.83;;;;;;;;;;767448;182;710858;-57
2022/08/09 13:51:15;;;;;;;4.10;2.10;;;;;;;;;;767527;182;616385;-57
2022/08/09 13:53:40;;;;;;;6.93;2.40;;;;;;;;;;761272;182;614845;-56
2022/08/09 13:56:06;;;;;;;4.80;2.90;;;;;;;;;;765674;182;672458;-57
2022/08/09 13:58:32;;;;;;;5.90;3.03;;;;;;;;;;766597;182;630086;-57
2022/08/09 14:00:58;;;;;;;3.33;2.03;;;;;;;;;;768714;182;647563;-57
2022/08/09 14:03:24;;;;;;;4.27;2.10;;;;;;;;;;765725;182;627059;-57
2022/08/09 14:05:50;;;;;;;4.90;2.00;;;;;;;;;;759445;182;638437;-57
2022/08/09 14:08:16;;;;;;;2.87;1.50;;;;;;;;;;772998;182;639737;-57
2022/08/09 14:10:42;;;;;;;4.53;2.83;;;;;;;;;;763932;182;636576;-57
2022/08/09 14:13:07;;;;;;;4.90;2.03;;;;;;;;;;763151;182;629308;-57
2022/08/09 14:15:33;;;;;;;3.90;2.00;;;;;;;;;;767766;182;632141;-56
2022/08/09 14:17:59;;;;;;;7.27;1.77;;;;;;;;;;762722;182;629011;-57